Terminal Aerodrome Forecast
Issued by NWS

Home | Current Version | Previous Version | Text Only | Print | Product List | Glossary On
Versions: 1 2 3 4 5 6 7 8 9 10 11 12 13 14 15
000
FTUS43 KFGF 282326
TAFTVF
TAF
KTVF 282326Z 2900/2924 34010KT P6SM BKN008
      TEMPO 2900/2902 BKN040
     FM290200 34008KT P6SM BKN025
     FM290700 32005KT 5SM BR BKN025
      TEMPO 2910/2913 2SM BR BKN008
     FM291700 34007KT P6SM BKN035=

USA.gov is the U.S. government's official web portal to all federal, state and local government web resources and services.